Time;durP1;ratioP1;P1;durP2;ratioP2;P2;SDS_P1;SDS_P2;PMS_P1;PMS_P2;Temp;Humidity;BMP_temperature;BMP_pressure;BME280_temperature;BME280_humidity;BME280_pressure;Samples;Min_cycle;Max_cycle;Signal;HPM_P1;HPM_P2
2023/04/02 00:01:00;;;;;;;8.17;7.33;;;;;;;;;;5091336;28;20179;-87
2023/04/02 00:03:52;;;;;;;8.97;7.33;;;;;;;;;;5094738;28;20183;-87
2023/04/02 00:06:33;;;;;;;7.17;6.47;;;;;;;;;;5068584;28;20207;-88
2023/04/02 00:09:04;;;;;;;7.67;6.70;;;;;;;;;;5077917;28;20180;-88
2023/04/02 00:11:36;;;;;;;7.27;6.47;;;;;;;;;;5085938;28;20282;-88
2023/04/02 00:14:03;;;;;;;7.43;6.73;;;;;;;;;;5096007;28;20543;-88
2023/04/02 00:16:29;;;;;;;9.23;7.00;;;;;;;;;;5094001;28;20270;-87
2023/04/02 00:18:57;;;;;;;7.90;7.10;;;;;;;;;;5109368;28;20176;-90
2023/04/02 00:21:34;;;;;;;7.50;6.67;;;;;;;;;;5109756;28;20647;-88
2023/04/02 00:24:00;;;;;;;7.40;6.63;;;;;;;;;;5095538;28;20218;-87
2023/04/02 00:26:30;;;;;;;8.83;6.90;;;;;;;;;;5095454;28;20270;-89
2023/04/02 00:28:56;;;;;;;7.33;6.63;;;;;;;;;;5095830;28;20180;-89
2023/04/02 00:31:22;;;;;;;7.53;6.70;;;;;;;;;;5113507;28;20251;-89
2023/04/02 00:33:49;;;;;;;11.13;7.00;;;;;;;;;;5076457;28;20172;-88
2023/04/02 00:36:18;;;;;;;8.03;7.20;;;;;;;;;;5093483;28;20207;-88
2023/04/02 00:38:46;;;;;;;8.20;7.17;;;;;;;;;;5095443;28;20172;-87
2023/04/02 00:41:19;;;;;;;9.20;8.20;;;;;;;;;;5093960;28;20193;-87
2023/04/02 00:43:49;;;;;;;9.90;8.53;;;;;;;;;;5095585;28;20660;-87
2023/04/02 00:46:16;;;;;;;11.60;8.30;;;;;;;;;;5079438;28;20268;-87
2023/04/02 00:49:07;;;;;;;10.17;8.27;;;;;;;;;;5096109;28;20711;-87
2023/04/02 00:51:40;;;;;;;9.40;8.10;;;;;;;;;;5092635;28;20218;-90
2023/04/02 00:54:09;;;;;;;10.17;9.07;;;;;;;;;;5095292;28;20171;-87
2023/04/02 00:56:39;;;;;;;10.20;9.10;;;;;;;;;;5091980;28;20188;-89
2023/04/02 00:59:14;;;;;;;12.87;9.37;;;;;;;;;;5087401;28;20250;-87
2023/04/02 01:01:41;;;;;;;9.20;8.20;;;;;;;;;;5093092;28;20179;-89
2023/04/02 01:04:25;;;;;;;10.30;9.27;;;;;;;;;;5076031;28;20225;-87
2023/04/02 01:06:52;;;;;;;10.57;9.47;;;;;;;;;;5075867;28;20199;-89
2023/04/02 01:09:41;;;;;;;12.40;9.83;;;;;;;;;;5079161;28;20645;-87
2023/04/02 01:12:07;;;;;;;11.37;9.27;;;;;;;;;;5085732;28;20240;-88
2023/04/02 01:14:35;;;;;;;10.80;9.70;;;;;;;;;;5091915;28;20239;-87
2023/04/02 01:17:04;;;;;;;12.87;10.80;;;;;;;;;;5078050;28;20180;-88
2023/04/02 01:19:46;;;;;;;11.10;9.77;;;;;;;;;;5076834;28;20253;-88
2023/04/02 01:22:33;;;;;;;13.67;10.13;;;;;;;;;;5077905;28;20173;-88
2023/04/02 01:25:03;;;;;;;12.43;9.20;;;;;;;;;;5076090;28;20356;-89
2023/04/02 01:27:32;;;;;;;12.00;9.53;;;;;;;;;;5095248;28;20221;-88
2023/04/02 01:30:00;;;;;;;11.87;9.33;;;;;;;;;;5095171;28;20207;-87
2023/04/02 01:32:27;;;;;;;9.93;8.87;;;;;;;;;;5094696;28;20188;-87
2023/04/02 01:34:53;;;;;;;11.60;8.97;;;;;;;;;;5089835;28;20184;-88
2023/04/02 01:37:31;;;;;;;12.70;9.37;;;;;;;;;;5091423;28;20178;-89
2023/04/02 01:40:16;;;;;;;9.57;8.57;;;;;;;;;;5093720;28;20182;-89
2023/04/02 01:43:01;;;;;;;9.47;8.10;;;;;;;;;;5096401;28;20213;-88
2023/04/02 01:45:28;;;;;;;8.43;7.53;;;;;;;;;;5094494;28;20342;-87
2023/04/02 01:47:55;;;;;;;9.03;8.03;;;;;;;;;;5096038;28;20179;-90
2023/04/02 01:50:35;;;;;;;9.77;8.00;;;;;;;;;;5094908;28;20725;-89
2023/04/02 01:53:06;;;;;;;7.50;6.70;;;;;;;;;;5092509;28;20239;-88
2023/04/02 01:55:40;;;;;;;12.03;10.37;;;;;;;;;;5093483;28;20172;-88
2023/04/02 01:58:07;;;;;;;8.50;7.27;;;;;;;;;;5109716;28;20178;-88
2023/04/02 02:00:35;;;;;;;8.67;7.67;;;;;;;;;;5095531;28;20650;-88
2023/04/02 02:03:01;;;;;;;8.20;7.30;;;;;;;;;;5114341;28;20590;-89
2023/04/02 02:05:27;;;;;;;6.97;6.27;;;;;;;;;;5093981;28;20181;-89
2023/04/02 02:07:55;;;;;;;7.57;6.80;;;;;;;;;;5095001;28;20240;-88
2023/04/02 02:13:25;;;;;;;8.27;7.37;;;;;;;;;;5113636;28;20174;-88
2023/04/02 02:15:51;;;;;;;9.60;6.90;;;;;;;;;;5085034;28;20226;-87
2023/04/02 02:18:22;;;;;;;8.13;7.30;;;;;;;;;;5078165;28;20192;-87
2023/04/02 02:20:48;;;;;;;8.43;6.87;;;;;;;;;;5083617;28;20188;-87
2023/04/02 02:23:15;;;;;;;7.50;6.70;;;;;;;;;;5097771;28;20203;-87
2023/04/02 02:25:41;;;;;;;6.77;6.13;;;;;;;;;;5079537;28;20259;-88
2023/04/02 02:28:10;;;;;;;7.97;7.17;;;;;;;;;;5099263;28;20172;-87
2023/04/02 02:30:36;;;;;;;7.27;6.57;;;;;;;;;;5086724;28;20212;-89
2023/04/02 02:33:13;;;;;;;7.10;6.40;;;;;;;;;;5084082;28;20233;-88
2023/04/02 02:36:02;;;;;;;7.13;6.20;;;;;;;;;;5097533;28;20203;-87
2023/04/02 02:38:28;;;;;;;8.30;7.03;;;;;;;;;;5095891;28;20248;-87
2023/04/02 02:40:57;;;;;;;7.93;6.80;;;;;;;;;;5094526;28;20177;-87
2023/04/02 02:43:24;;;;;;;7.97;7.17;;;;;;;;;;5100813;28;20656;-87
2023/04/02 02:45:51;;;;;;;7.27;6.57;;;;;;;;;;5088506;28;20177;-87
2023/04/02 02:48:19;;;;;;;8.97;7.37;;;;;;;;;;5096956;28;20176;-88
2023/04/02 02:50:45;;;;;;;9.07;8.13;;;;;;;;;;5098590;28;20211;-87
2023/04/02 02:53:22;;;;;;;10.67;8.97;;;;;;;;;;5103353;28;20204;-87
2023/04/02 02:55:50;;;;;;;9.53;8.27;;;;;;;;;;5107934;28;20274;-86
2023/04/02 02:58:34;;;;;;;8.80;7.90;;;;;;;;;;5113218;28;20168;-88
2023/04/02 03:01:01;;;;;;;11.63;8.73;;;;;;;;;;5104436;28;20594;-87
2023/04/02 03:03:28;;;;;;;15.17;11.47;;;;;;;;;;5108681;28;20194;-88
2023/04/02 03:05:55;;;;;;;16.10;11.90;;;;;;;;;;5102093;28;20187;-88
2023/04/02 03:08:29;;;;;;;12.23;9.90;;;;;;;;;;5096876;28;20198;-87
2023/04/02 03:11:01;;;;;;;14.67;11.83;;;;;;;;;;5095383;28;20208;-89
2023/04/02 03:13:34;;;;;;;11.73;9.67;;;;;;;;;;5096224;28;20252;-88
2023/04/02 03:16:07;;;;;;;13.47;10.33;;;;;;;;;;5091435;28;20251;-88
2023/04/02 03:18:46;;;;;;;12.50;11.17;;;;;;;;;;5096585;28;20188;-89
2023/04/02 03:21:15;;;;;;;12.23;9.87;;;;;;;;;;5096795;28;20187;-88
2023/04/02 03:23:43;;;;;;;13.57;11.67;;;;;;;;;;5095247;28;20221;-89
2023/04/02 03:26:24;;;;;;;16.03;12.50;;;;;;;;;;5097788;28;20186;-87
2023/04/02 03:28:55;;;;;;;11.67;9.53;;;;;;;;;;5078727;28;20244;-88
2023/04/02 03:31:25;;;;;;;15.10;11.13;;;;;;;;;;5077269;28;20249;-87
2023/04/02 03:33:55;;;;;;;12.93;10.63;;;;;;;;;;5096190;28;20180;-88
2023/04/02 03:36:42;;;;;;;11.17;9.60;;;;;;;;;;5094279;28;20668;-88
2023/04/02 03:39:08;;;;;;;11.40;9.87;;;;;;;;;;5097368;28;20183;-88
2023/04/02 03:41:37;;;;;;;13.83;10.57;;;;;;;;;;5096253;28;20175;-88
2023/04/02 03:44:06;;;;;;;12.63;10.70;;;;;;;;;;5096537;28;20180;-87
2023/04/02 03:46:44;;;;;;;12.80;11.43;;;;;;;;;;5095275;28;20172;-89
2023/04/02 03:49:17;;;;;;;13.03;11.27;;;;;;;;;;5076162;28;20205;-88
2023/04/02 03:51:57;;;;;;;13.13;10.73;;;;;;;;;;5092314;28;20192;-86
2023/04/02 03:54:23;;;;;;;14.27;12.10;;;;;;;;;;5092742;28;21076;-88
2023/04/02 03:56:51;;;;;;;12.50;10.73;;;;;;;;;;5096677;28;20244;-88
2023/04/02 03:59:32;;;;;;;14.10;11.57;;;;;;;;;;5079974;28;20596;-86
2023/04/02 04:02:00;;;;;;;13.80;10.80;;;;;;;;;;5110209;28;20218;-87
2023/04/02 04:04:28;;;;;;;14.63;11.20;;;;;;;;;;5114311;28;20255;-88
2023/04/02 04:06:56;;;;;;;13.53;11.53;;;;;;;;;;5092820;28;20177;-89
2023/04/02 04:09:22;;;;;;;13.13;11.10;;;;;;;;;;5086365;28;20184;-89
2023/04/02 04:11:49;;;;;;;12.93;11.33;;;;;;;;;;5089544;28;20317;-86
2023/04/02 04:14:18;;;;;;;15.33;11.70;;;;;;;;;;5098168;28;20185;-87
2023/04/02 04:16:52;;;;;;;12.53;10.90;;;;;;;;;;5085779;28;20173;-89
2023/04/02 04:19:22;;;;;;;13.57;10.77;;;;;;;;;;5098426;28;20270;-87
2023/04/02 04:21:48;;;;;;;15.80;12.43;;;;;;;;;;5112172;28;20211;-89
2023/04/02 04:24:20;;;;;;;14.40;12.30;;;;;;;;;;5100215;28;20277;-89
2023/04/02 04:26:48;;;;;;;17.97;14.47;;;;;;;;;;5094521;28;20192;-87
2023/04/02 04:29:29;;;;;;;15.67;13.87;;;;;;;;;;5091846;28;20172;-88
2023/04/02 04:31:57;;;;;;;16.77;14.40;;;;;;;;;;5079888;28;20526;-89
2023/04/02 04:34:30;;;;;;;17.87;14.97;;;;;;;;;;5096166;28;20220;-88
2023/04/02 04:37:01;;;;;;;20.30;15.17;;;;;;;;;;5109172;28;20180;-88
2023/04/02 04:39:36;;;;;;;18.30;15.10;;;;;;;;;;5092547;28;20188;-88
2023/04/02 04:42:04;;;;;;;20.80;16.23;;;;;;;;;;5085365;28;20184;-89
2023/04/02 04:44:45;;;;;;;21.73;18.10;;;;;;;;;;5093207;28;20234;-88
2023/04/02 04:47:15;;;;;;;18.40;14.80;;;;;;;;;;5090976;28;20537;-87
2023/04/02 04:49:47;;;;;;;18.27;14.97;;;;;;;;;;5092879;28;20203;-88
2023/04/02 04:52:18;;;;;;;18.07;15.60;;;;;;;;;;5081309;28;20646;-88
2023/04/02 04:54:45;;;;;;;18.63;15.47;;;;;;;;;;5092795;28;20179;-87
2023/04/02 04:57:30;;;;;;;16.43;14.67;;;;;;;;;;5081936;28;20329;-87
2023/04/02 05:00:00;;;;;;;19.53;15.47;;;;;;;;;;5095103;28;20180;-87
2023/04/02 05:02:30;;;;;;;17.93;14.20;;;;;;;;;;5078214;28;20164;-87
2023/04/02 05:04:56;;;;;;;19.13;15.17;;;;;;;;;;5094156;28;20213;-89
2023/04/02 05:07:27;;;;;;;21.00;16.17;;;;;;;;;;5075281;28;20173;-88
2023/04/02 05:09:59;;;;;;;21.60;17.47;;;;;;;;;;5078680;28;20216;-87
2023/04/02 05:12:36;;;;;;;20.40;17.07;;;;;;;;;;5091685;28;20241;-88
2023/04/02 05:15:01;;;;;;;21.80;16.60;;;;;;;;;;5087916;28;20179;-87
2023/04/02 05:17:30;;;;;;;23.67;18.20;;;;;;;;;;5092026;28;20271;-87
2023/04/02 05:20:08;;;;;;;22.60;18.00;;;;;;;;;;5091497;28;20215;-86
2023/04/02 05:22:42;;;;;;;22.53;17.70;;;;;;;;;;5075526;28;20187;-86
2023/04/02 05:25:14;;;;;;;19.33;16.37;;;;;;;;;;5074814;28;20266;-88
2023/04/02 05:27:59;;;;;;;24.90;17.53;;;;;;;;;;5074458;28;20188;-86
2023/04/02 05:30:25;;;;;;;21.27;17.13;;;;;;;;;;5089551;28;20208;-88
2023/04/02 05:32:57;;;;;;;25.20;19.10;;;;;;;;;;5088891;28;20178;-87
2023/04/02 05:35:27;;;;;;;22.97;17.73;;;;;;;;;;5085589;28;20264;-88
2023/04/02 05:37:53;;;;;;;24.63;19.57;;;;;;;;;;5071801;28;20246;-89
2023/04/02 05:40:21;;;;;;;27.13;20.00;;;;;;;;;;5075530;28;20181;-88
2023/04/02 05:42:49;;;;;;;27.63;20.23;;;;;;;;;;5086505;28;20279;-89
2023/04/02 05:45:27;;;;;;;28.80;21.63;;;;;;;;;;5073732;28;20522;-88
2023/04/02 05:47:58;;;;;;;27.73;21.00;;;;;;;;;;5087644;28;20223;-89
2023/04/02 05:50:29;;;;;;;25.17;19.07;;;;;;;;;;5071455;28;20316;-86
2023/04/02 05:53:06;;;;;;;23.27;18.60;;;;;;;;;;5062877;28;20185;-87
2023/04/02 05:55:39;;;;;;;26.57;20.20;;;;;;;;;;5052972;28;20256;-88
2023/04/02 05:58:26;;;;;;;24.27;19.67;;;;;;;;;;5071325;28;20172;-88
2023/04/02 06:01:02;;;;;;;26.50;20.50;;;;;;;;;;5065355;28;20200;-87
2023/04/02 06:03:44;;;;;;;25.53;20.07;;;;;;;;;;5086374;28;20197;-89
2023/04/02 06:06:26;;;;;;;26.87;20.77;;;;;;;;;;5089592;28;20306;-89
2023/04/02 06:08:56;;;;;;;25.43;20.73;;;;;;;;;;5088478;28;20185;-87
2023/04/02 06:11:26;;;;;;;28.17;20.17;;;;;;;;;;5073031;28;20571;-88
2023/04/02 06:13:52;;;;;;;26.57;19.13;;;;;;;;;;5071278;28;20209;-87
2023/04/02 06:16:20;;;;;;;24.40;18.97;;;;;;;;;;5073654;28;20189;-87
2023/04/02 06:18:46;;;;;;;23.97;19.63;;;;;;;;;;5074150;28;20185;-89
2023/04/02 06:21:14;;;;;;;22.50;17.50;;;;;;;;;;5075851;28;20184;-87
2023/04/02 06:23:47;;;;;;;22.37;17.53;;;;;;;;;;5086266;28;20647;-88
2023/04/02 06:26:16;;;;;;;18.50;15.37;;;;;;;;;;5097789;28;20186;-88
2023/04/02 06:28:47;;;;;;;18.47;15.33;;;;;;;;;;5111361;28;20243;-86
2023/04/02 06:31:19;;;;;;;24.67;16.87;;;;;;;;;;5111325;28;20184;-89
2023/04/02 06:33:45;;;;;;;21.83;16.67;;;;;;;;;;5128007;28;20251;-89
2023/04/02 06:36:11;;;;;;;19.27;15.47;;;;;;;;;;5115638;28;20164;-89
2023/04/02 06:38:38;;;;;;;18.23;14.60;;;;;;;;;;5089237;28;20216;-87
2023/04/02 06:41:25;;;;;;;18.50;14.60;;;;;;;;;;5079066;28;20544;-88
2023/04/02 06:43:56;;;;;;;17.47;13.67;;;;;;;;;;5111238;28;20229;-88
2023/04/02 06:46:25;;;;;;;16.07;12.97;;;;;;;;;;5096067;28;20183;-87
2023/04/02 06:48:52;;;;;;;16.20;12.70;;;;;;;;;;5096909;28;20206;-87
2023/04/02 06:51:20;;;;;;;17.87;13.10;;;;;;;;;;5114344;28;20211;-89
2023/04/02 06:53:47;;;;;;;15.07;12.37;;;;;;;;;;5096579;28;20179;-90
2023/04/02 06:56:19;;;;;;;13.57;10.87;;;;;;;;;;5093096;28;20179;-88
2023/04/02 06:58:45;;;;;;;14.43;11.40;;;;;;;;;;5084679;28;20541;-85
2023/04/02 07:01:19;;;;;;;30.33;18.27;;;;;;;;;;5093595;28;20180;-85
2023/04/02 07:03:45;;;;;;;11.37;10.17;;;;;;;;;;5088377;28;20586;-86
2023/04/02 07:06:16;;;;;;;12.97;10.83;;;;;;;;;;5098345;28;20211;-86
2023/04/02 07:08:42;;;;;;;14.53;11.47;;;;;;;;;;5119850;28;20179;-87
2023/04/02 07:11:09;;;;;;;12.47;10.40;;;;;;;;;;5099677;28;20570;-85
2023/04/02 07:13:35;;;;;;;13.07;10.57;;;;;;;;;;5082643;28;20656;-90
2023/04/02 07:16:01;;;;;;;11.97;10.23;;;;;;;;;;5089003;28;20267;-91
2023/04/02 07:18:32;;;;;;;14.33;11.10;;;;;;;;;;5093136;28;20217;-86
2023/04/02 07:20:58;;;;;;;12.50;10.60;;;;;;;;;;5087172;28;20390;-91
2023/04/02 07:23:24;;;;;;;13.17;10.57;;;;;;;;;;5094713;28;20192;-89
2023/04/02 07:25:52;;;;;;;11.53;10.33;;;;;;;;;;5095154;28;20231;-89
2023/04/02 07:28:18;;;;;;;13.13;10.63;;;;;;;;;;5084061;28;20172;-87
2023/04/02 07:30:45;;;;;;;10.80;9.70;;;;;;;;;;5088395;28;20220;-86
2023/04/02 07:33:16;;;;;;;11.67;10.13;;;;;;;;;;5094087;28;20183;-90
2023/04/02 07:35:42;;;;;;;10.87;9.70;;;;;;;;;;5092481;28;20183;-87
2023/04/02 07:38:08;;;;;;;12.37;10.10;;;;;;;;;;5112215;28;20179;-89
2023/04/02 07:40:34;;;;;;;12.77;10.53;;;;;;;;;;5092263;28;20252;-84
2023/04/02 07:43:00;;;;;;;13.93;10.23;;;;;;;;;;5095211;28;20717;-89
2023/04/02 07:45:26;;;;;;;11.60;10.00;;;;;;;;;;5095405;28;20215;-86
2023/04/02 07:47:53;;;;;;;12.37;9.63;;;;;;;;;;5095808;28;20646;-87
2023/04/02 07:50:19;;;;;;;10.63;9.53;;;;;;;;;;5092569;28;20229;-88
2023/04/02 07:52:45;;;;;;;12.87;11.03;;;;;;;;;;5095593;28;20172;-87
2023/04/02 07:55:12;;;;;;;12.00;10.47;;;;;;;;;;5092512;28;20180;-88
2023/04/02 07:57:48;;;;;;;11.90;9.73;;;;;;;;;;5095557;28;20183;-90
2023/04/02 08:00:14;;;;;;;10.80;9.70;;;;;;;;;;5092840;28;20183;-89
2023/04/02 08:02:41;;;;;;;15.27;12.67;;;;;;;;;;5095854;28;20176;-88
2023/04/02 08:05:08;;;;;;;12.53;10.53;;;;;;;;;;5095498;28;20639;-87
2023/04/02 08:07:34;;;;;;;19.57;14.77;;;;;;;;;;5091779;28;20541;-87
2023/04/02 08:10:00;;;;;;;17.60;13.27;;;;;;;;;;5092317;28;20214;-89
2023/04/02 08:12:26;;;;;;;18.30;14.93;;;;;;;;;;5096913;28;20191;-88
2023/04/02 08:14:52;;;;;;;15.67;12.77;;;;;;;;;;5111418;28;20179;-86
2023/04/02 08:17:18;;;;;;;13.50;11.57;;;;;;;;;;5110425;28;20194;-84
2023/04/02 08:19:44;;;;;;;17.67;14.57;;;;;;;;;;5091575;28;20180;-87
2023/04/02 08:25:14;;;;;;;14.77;12.43;;;;;;;;;;5111874;28;20872;-86
2023/04/02 08:27:40;;;;;;;18.17;13.80;;;;;;;;;;5094917;28;20195;-85
2023/04/02 08:30:07;;;;;;;16.53;13.00;;;;;;;;;;5095115;28;20210;-85
2023/04/02 08:32:33;;;;;;;15.73;13.43;;;;;;;;;;5094973;28;20180;-86
2023/04/02 08:34:59;;;;;;;14.87;12.17;;;;;;;;;;5112425;28;20170;-89
2023/04/02 08:37:26;;;;;;;15.13;12.30;;;;;;;;;;5111185;28;20171;-85
2023/04/02 08:39:52;;;;;;;12.53;11.13;;;;;;;;;;5110713;28;20202;-88
2023/04/02 08:42:42;;;;;;;13.03;11.53;;;;;;;;;;5088803;28;20193;-85
2023/04/02 08:45:27;;;;;;;12.97;11.37;;;;;;;;;;5086311;28;20179;-83
2023/04/02 08:47:56;;;;;;;17.47;14.60;;;;;;;;;;5090141;28;20183;-83
2023/04/02 08:50:25;;;;;;;17.83;15.23;;;;;;;;;;5091387;28;20211;-83
2023/04/02 08:52:51;;;;;;;17.37;12.90;;;;;;;;;;5112109;28;20690;-83
2023/04/02 08:55:22;;;;;;;14.77;11.83;;;;;;;;;;5111131;28;20180;-82
2023/04/02 08:57:48;;;;;;;12.23;10.93;;;;;;;;;;5086775;28;20618;-84
2023/04/02 09:00:14;;;;;;;14.60;13.00;;;;;;;;;;5097807;28;20180;-84
2023/04/02 09:02:58;;;;;;;29.00;22.90;;;;;;;;;;5092941;28;20669;-83
2023/04/02 09:05:29;;;;;;;17.17;14.20;;;;;;;;;;5072882;28;20184;-83
2023/04/02 09:07:57;;;;;;;23.27;19.53;;;;;;;;;;5092271;28;20187;-84
2023/04/02 09:10:26;;;;;;;14.33;12.57;;;;;;;;;;5092463;28;20290;-84
2023/04/02 09:12:52;;;;;;;16.07;12.83;;;;;;;;;;5089860;28;20665;-84
2023/04/02 09:15:32;;;;;;;16.23;13.70;;;;;;;;;;5087665;28;20279;-83
2023/04/02 09:18:00;;;;;;;22.87;17.27;;;;;;;;;;5110587;28;20262;-84
2023/04/02 09:20:28;;;;;;;14.60;12.37;;;;;;;;;;5092492;28;20172;-84
2023/04/02 09:22:54;;;;;;;15.23;13.63;;;;;;;;;;5090514;28;20229;-87
2023/04/02 09:28:25;;;;;;;11.27;10.07;;;;;;;;;;5109856;28;20212;-87
2023/04/02 09:30:51;;;;;;;10.97;9.70;;;;;;;;;;5083783;28;20696;-86
2023/04/02 09:33:18;;;;;;;9.77;8.70;;;;;;;;;;5092575;28;20597;-86
2023/04/02 09:35:50;;;;;;;9.80;8.63;;;;;;;;;;5092795;28;20203;-85
2023/04/02 09:38:16;;;;;;;10.40;9.33;;;;;;;;;;5090826;28;20579;-85
2023/04/02 09:40:51;;;;;;;8.67;7.77;;;;;;;;;;5092794;28;20175;-87
2023/04/02 09:43:19;;;;;;;8.30;7.50;;;;;;;;;;5092329;28;20185;-86
2023/04/02 09:45:56;;;;;;;9.07;7.53;;;;;;;;;;5093433;28;20178;-87
2023/04/02 09:48:24;;;;;;;8.10;7.20;;;;;;;;;;5091848;28;20635;-87
2023/04/02 09:51:03;;;;;;;8.43;6.57;;;;;;;;;;5082878;28;20223;-86
2023/04/02 09:53:30;;;;;;;7.77;6.90;;;;;;;;;;5094037;28;20242;-86
2023/04/02 09:56:26;;;;;;;8.70;7.30;;;;;;;;;;5090356;28;20195;-86
2023/04/02 09:59:04;;;;;;;8.83;6.93;;;;;;;;;;5086692;28;20240;-86
2023/04/02 10:01:32;;;;;;;8.47;7.50;;;;;;;;;;5075153;28;20634;-86
2023/04/02 10:03:58;;;;;;;9.70;8.37;;;;;;;;;;5108232;28;20279;-85
2023/04/02 10:06:25;;;;;;;8.40;7.40;;;;;;;;;;5135112;28;20237;-86
2023/04/02 10:08:51;;;;;;;9.83;8.73;;;;;;;;;;5115799;28;20188;-86
2023/04/02 10:11:28;;;;;;;11.70;9.03;;;;;;;;;;5116496;28;20196;-86
2023/04/02 10:13:56;;;;;;;11.83;8.77;;;;;;;;;;5112970;28;20186;-87
2023/04/02 10:16:22;;;;;;;7.97;6.80;;;;;;;;;;5097284;28;20183;-87
2023/04/02 10:18:55;;;;;;;8.20;7.30;;;;;;;;;;5084122;28;20187;-86
2023/04/02 10:21:26;;;;;;;7.10;6.40;;;;;;;;;;5101848;28;20258;-86
2023/04/02 10:23:52;;;;;;;8.77;6.67;;;;;;;;;;5093717;28;20220;-86
2023/04/02 10:26:26;;;;;;;8.83;7.40;;;;;;;;;;5095103;28;20263;-86
2023/04/02 10:31:55;;;;;;;6.33;5.73;;;;;;;;;;5114444;28;20240;-87
2023/04/02 10:34:23;;;;;;;6.90;5.83;;;;;;;;;;5088683;28;20191;-87
2023/04/02 10:36:54;;;;;;;8.07;5.47;;;;;;;;;;5098196;28;20545;-87
2023/04/02 10:39:28;;;;;;;6.63;5.67;;;;;;;;;;5096988;28;20182;-87
2023/04/02 10:42:03;;;;;;;5.17;4.67;;;;;;;;;;5094661;28;20238;-86
2023/04/02 10:44:29;;;;;;;6.73;5.57;;;;;;;;;;5093756;28;20202;-86
2023/04/02 10:47:14;;;;;;;6.53;5.87;;;;;;;;;;5087046;28;20213;-88
2023/04/02 10:49:50;;;;;;;6.90;5.50;;;;;;;;;;5086525;28;20180;-88
2023/04/02 10:52:21;;;;;;;7.70;6.90;;;;;;;;;;5081898;28;20203;-87
2023/04/02 10:54:51;;;;;;;7.87;7.07;;;;;;;;;;5092509;28;20668;-87
2023/04/02 10:57:20;;;;;;;9.83;7.93;;;;;;;;;;5090753;28;20177;-88
2023/04/02 10:59:48;;;;;;;8.93;7.13;;;;;;;;;;5094052;28;20199;-90
2023/04/02 11:02:23;;;;;;;8.67;7.00;;;;;;;;;;5094020;28;20160;-90
2023/04/02 11:04:50;;;;;;;11.30;9.00;;;;;;;;;;5097011;28;20171;-87
2023/04/02 11:07:19;;;;;;;8.53;6.97;;;;;;;;;;5092978;28;20234;-91
2023/04/02 11:09:47;;;;;;;9.17;7.37;;;;;;;;;;5090576;28;20192;-89
2023/04/02 11:12:25;;;;;;;7.70;6.87;;;;;;;;;;5093738;28;20278;-86
2023/04/02 11:14:51;;;;;;;10.17;8.93;;;;;;;;;;5094363;28;20278;-88
2023/04/02 11:17:18;;;;;;;20.80;15.27;;;;;;;;;;5096780;28;20176;-87
2023/04/02 11:19:44;;;;;;;14.97;12.73;;;;;;;;;;5105854;28;20541;-87
2023/04/02 11:22:15;;;;;;;9.37;8.37;;;;;;;;;;5092331;28;20207;-87
2023/04/02 11:24:45;;;;;;;11.07;8.87;;;;;;;;;;5088954;28;20279;-88
2023/04/02 11:27:13;;;;;;;7.33;6.60;;;;;;;;;;5092632;28;20187;-87
2023/04/02 11:29:42;;;;;;;7.87;7.07;;;;;;;;;;5094083;28;20275;-86
2023/04/02 11:32:20;;;;;;;9.50;7.73;;;;;;;;;;5090871;28;20167;-86
2023/04/02 11:34:46;;;;;;;10.30;7.40;;;;;;;;;;5081813;28;20180;-86
2023/04/02 11:37:31;;;;;;;9.30;7.50;;;;;;;;;;5084922;28;20180;-87
2023/04/02 11:39:58;;;;;;;12.00;9.73;;;;;;;;;;5091586;28;20642;-86
2023/04/02 11:42:24;;;;;;;11.37;10.17;;;;;;;;;;5089400;28;20188;-86
2023/04/02 11:44:51;;;;;;;13.30;11.90;;;;;;;;;;5091012;28;20184;-86
2023/04/02 11:47:17;;;;;;;13.77;11.10;;;;;;;;;;5075831;28;20301;-86
2023/04/02 11:50:05;;;;;;;13.53;12.10;;;;;;;;;;5093472;28;20171;-86
2023/04/02 11:52:35;;;;;;;15.07;9.90;;;;;;;;;;5089161;28;20284;-87
2023/04/02 11:55:04;;;;;;;12.23;10.63;;;;;;;;;;5093399;28;20577;-86
2023/04/02 11:57:33;;;;;;;13.33;10.37;;;;;;;;;;5082424;28;20184;-88
2023/04/02 12:00:14;;;;;;;12.90;10.67;;;;;;;;;;5083595;28;20554;-85
2023/04/02 12:03:12;;;;;;;14.00;12.00;;;;;;;;;;5092317;28;20241;-87
2023/04/02 12:05:49;;;;;;;13.73;12.27;;;;;;;;;;4995210;28;20266;-88
2023/04/02 12:08:21;;;;;;;21.70;13.10;;;;;;;;;;4997240;28;20203;-86
2023/04/02 12:10:56;;;;;;;13.33;11.97;;;;;;;;;;4993037;28;20270;-85
2023/04/02 12:13:40;;;;;;;15.03;12.10;;;;;;;;;;4995221;28;20194;-88
2023/04/02 12:16:10;;;;;;;12.87;11.50;;;;;;;;;;4995144;28;20657;-86
2023/04/02 12:18:41;;;;;;;13.70;10.90;;;;;;;;;;4995595;28;20208;-89
2023/04/02 12:21:07;;;;;;;14.73;10.83;;;;;;;;;;5004733;28;20203;-90
2023/04/02 12:23:35;;;;;;;15.37;12.10;;;;;;;;;;5024355;28;20223;-90
2023/04/02 12:26:02;;;;;;;14.57;11.57;;;;;;;;;;5019527;28;20195;-89
2023/04/02 12:28:30;;;;;;;12.67;10.33;;;;;;;;;;5014909;28;20274;-90
2023/04/02 12:31:25;;;;;;;11.73;10.03;;;;;;;;;;4996022;28;20206;-90
2023/04/02 12:33:51;;;;;;;11.10;9.97;;;;;;;;;;4996369;28;20199;-90
2023/04/02 12:36:19;;;;;;;14.07;11.73;;;;;;;;;;4993422;28;20201;-91
2023/04/02 12:38:45;;;;;;;12.47;10.03;;;;;;;;;;4979583;28;20181;-89
2023/04/02 12:41:22;;;;;;;14.97;11.77;;;;;;;;;;5025582;28;20189;-90
2023/04/02 12:43:55;;;;;;;14.13;11.77;;;;;;;;;;5077595;28;20180;-90
2023/04/02 12:46:24;;;;;;;16.10;12.37;;;;;;;;;;5092193;28;20611;-90
2023/04/02 12:48:50;;;;;;;14.07;12.43;;;;;;;;;;5093033;28;20183;-89
2023/04/02 12:51:16;;;;;;;13.53;11.93;;;;;;;;;;5084051;28;20208;-90
2023/04/02 12:53:48;;;;;;;14.63;12.53;;;;;;;;;;5096562;28;20171;-89
2023/04/02 12:56:20;;;;;;;13.37;11.97;;;;;;;;;;5096648;28;20211;-90
2023/04/02 12:58:51;;;;;;;13.70;10.60;;;;;;;;;;5090558;28;20638;-90
2023/04/02 13:01:19;;;;;;;13.97;11.30;;;;;;;;;;5092139;28;20172;-90
2023/04/02 13:04:17;;;;;;;30.23;24.33;;;;;;;;;;5096106;28;20180;-89
2023/04/02 13:06:50;;;;;;;15.70;12.60;;;;;;;;;;5031733;28;20714;-90
2023/04/02 13:09:40;;;;;;;27.10;18.93;;;;;;;;;;5015455;28;20644;-90
2023/04/02 13:12:06;;;;;;;13.60;12.20;;;;;;;;;;5031905;28;20226;-89
2023/04/02 13:14:32;;;;;;;17.47;14.37;;;;;;;;;;5015180;28;20269;-90
2023/04/02 13:16:58;;;;;;;19.10;15.30;;;;;;;;;;5031967;28;20218;-89
2023/04/02 13:19:31;;;;;;;18.27;14.17;;;;;;;;;;5014838;28;20186;-88
2023/04/02 13:21:58;;;;;;;17.30;14.17;;;;;;;;;;5031794;28;20190;-89
2023/04/02 13:24:26;;;;;;;16.10;13.50;;;;;;;;;;5022488;28;20792;-91
2023/04/02 13:26:56;;;;;;;18.43;14.40;;;;;;;;;;5050733;28;20321;-90
2023/04/02 13:29:23;;;;;;;15.07;13.00;;;;;;;;;;5035675;28;20209;-90
2023/04/02 13:31:50;;;;;;;16.77;14.20;;;;;;;;;;5035111;28;20715;-90
2023/04/02 13:34:17;;;;;;;16.97;13.60;;;;;;;;;;5035649;28;20256;-89
2023/04/02 13:36:44;;;;;;;17.30;14.10;;;;;;;;;;5018823;28;20195;-89
2023/04/02 13:39:10;;;;;;;19.80;17.37;;;;;;;;;;5038189;28;20225;-89
2023/04/02 13:41:43;;;;;;;13.47;11.50;;;;;;;;;;5055243;28;20195;-90
2023/04/02 13:44:17;;;;;;;13.93;12.03;;;;;;;;;;5114904;28;20156;-91
2023/04/02 13:46:43;;;;;;;14.00;12.50;;;;;;;;;;5092104;28;20189;-90
2023/04/02 13:49:12;;;;;;;13.87;11.87;;;;;;;;;;5079787;28;20188;-89
2023/04/02 13:51:48;;;;;;;16.00;12.33;;;;;;;;;;5098095;28;20196;-90
2023/04/02 13:54:18;;;;;;;13.27;11.83;;;;;;;;;;5099762;28;20187;-90
2023/04/02 13:56:44;;;;;;;16.87;13.40;;;;;;;;;;5099635;28;20231;-91
2023/04/02 13:59:10;;;;;;;18.37;14.30;;;;;;;;;;5093118;28;20239;-91
2023/04/02 14:01:37;;;;;;;18.53;14.87;;;;;;;;;;5100707;28;20184;-90
2023/04/02 14:04:04;;;;;;;13.13;11.57;;;;;;;;;;5091940;28;20186;-91
2023/04/02 14:06:51;;;;;;;9.80;8.80;;;;;;;;;;5099899;28;20191;-89
2023/04/02 14:09:20;;;;;;;12.33;9.73;;;;;;;;;;5079556;28;20244;-91
2023/04/02 14:11:46;;;;;;;13.90;10.90;;;;;;;;;;5079904;28;20345;-91
2023/04/02 14:14:25;;;;;;;26.23;17.20;;;;;;;;;;5100230;28;20219;-94
2023/04/02 14:16:57;;;;;;;19.80;13.17;;;;;;;;;;5099436;28;20199;-93
2023/04/02 14:19:23;;;;;;;10.87;8.80;;;;;;;;;;5100568;28;20258;-92
2023/04/02 14:21:49;;;;;;;22.23;15.37;;;;;;;;;;5091723;28;20230;-92
2023/04/02 14:24:22;;;;;;;12.47;10.70;;;;;;;;;;5096234;28;20227;-93
2023/04/02 14:26:48;;;;;;;18.13;13.43;;;;;;;;;;5080723;28;20655;-90
2023/04/02 14:29:20;;;;;;;11.53;9.33;;;;;;;;;;5099644;28;20256;-91
2023/04/02 14:31:59;;;;;;;10.83;9.27;;;;;;;;;;5095911;28;20203;-95
2023/04/02 14:34:43;;;;;;;14.83;11.43;;;;;;;;;;5094958;28;20193;-93
2023/04/02 14:37:18;;;;;;;11.37;9.73;;;;;;;;;;5100023;28;20541;-94
2023/04/02 14:40:03;;;;;;;8.03;7.20;;;;;;;;;;5095585;28;20183;-94
2023/04/02 14:42:47;;;;;;;12.27;9.37;;;;;;;;;;5082769;28;21666;-94
2023/04/02 14:45:13;;;;;;;9.03;7.30;;;;;;;;;;5096665;28;20176;-93
2023/04/02 14:47:45;;;;;;;8.40;7.47;;;;;;;;;;5091643;28;20259;-91
2023/04/02 14:50:13;;;;;;;9.30;8.30;;;;;;;;;;5079685;28;20232;-92
2023/04/02 14:52:42;;;;;;;10.00;8.13;;;;;;;;;;5096085;28;20191;-93
2023/04/02 14:55:21;;;;;;;11.83;9.40;;;;;;;;;;5103295;28;20172;-92
2023/04/02 14:57:51;;;;;;;12.40;10.37;;;;;;;;;;5089839;28;20179;-92
2023/04/02 15:00:27;;;;;;;12.37;10.13;;;;;;;;;;5091088;28;20212;-93